sensor_id;sensor_type;location;lat;lon;timestamp;pressure;altitude;pressure_sealevel;temperature;humidity
62833;BME280;48891;49.220;6.920;2023-01-05T00:01:15;99440.81;;;13.40;70.29
62833;BME280;48891;49.220;6.920;2023-01-05T00:03:40;99435.63;;;13.38;70.13
62833;BME280;48891;49.220;6.920;2023-01-05T00:06:10;99418.72;;;13.25;70.30
62833;BME280;48891;49.220;6.920;2023-01-05T00:08:37;99438.25;;;13.38;70.49
62833;BME280;48891;49.220;6.920;2023-01-05T00:11:08;99436.50;;;13.39;70.63
62833;BME280;48891;49.220;6.920;2023-01-05T00:13:33;99431.19;;;13.39;70.29
62833;BME280;48891;49.220;6.920;2023-01-05T00:15:59;99428.53;;;13.39;70.26
62833;BME280;48891;49.220;6.920;2023-01-05T00:18:24;99421.03;;;13.31;70.28
62833;BME280;48891;49.220;6.920;2023-01-05T00:20:49;99440.91;;;13.38;70.57
62833;BME280;48891;49.220;6.920;2023-01-05T00:23:14;99433.84;;;13.39;70.47
62833;BME280;48891;49.220;6.920;2023-01-05T00:25:40;99437.34;;;13.39;70.37
62833;BME280;48891;49.220;6.920;2023-01-05T00:28:06;99440.91;;;13.38;70.42
62833;BME280;48891;49.220;6.920;2023-01-05T00:30:33;99427.00;;;13.35;70.57
62833;BME280;48891;49.220;6.920;2023-01-05T00:33:00;99432.88;;;13.40;70.63
62833;BME280;48891;49.220;6.920;2023-01-05T00:35:25;99435.63;;;13.38;70.64
62833;BME280;48891;49.220;6.920;2023-01-05T00:37:50;99436.50;;;13.39;70.35
62833;BME280;48891;49.220;6.920;2023-01-05T00:40:18;99388.59;;;13.11;70.59
62833;BME280;48891;49.220;6.920;2023-01-05T00:42:44;99408.03;;;13.26;70.45
62833;BME280;48891;49.220;6.920;2023-01-05T00:45:12;99422.38;;;13.38;70.49
62833;BME280;48891;49.220;6.920;2023-01-05T00:47:37;99438.09;;;13.41;70.52
62833;BME280;48891;49.220;6.920;2023-01-05T00:50:03;99429.38;;;13.39;70.46
62833;BME280;48891;49.220;6.920;2023-01-05T00:52:29;99411.78;;;13.38;70.52
62833;BME280;48891;49.220;6.920;2023-01-05T00:54:54;99410.00;;;13.39;70.43
62833;BME280;48891;49.220;6.920;2023-01-05T00:57:20;99410.00;;;13.39;70.61
62833;BME280;48891;49.220;6.920;2023-01-05T00:59:45;99408.19;;;13.39;70.44
62833;BME280;48891;49.220;6.920;2023-01-05T01:02:10;99421.44;;;13.39;70.63
62833;BME280;48891;49.220;6.920;2023-01-05T01:04:35;99418.97;;;13.36;70.73
62833;BME280;48891;49.220;6.920;2023-01-05T01:07:01;99380.47;;;13.15;70.52
62833;BME280;48891;49.220;6.920;2023-01-05T01:09:27;99410.25;;;13.34;70.67
62833;BME280;48891;49.220;6.920;2023-01-05T01:11:52;99411.88;;;13.37;70.50
62833;BME280;48891;49.220;6.920;2023-01-05T01:14:18;99369.28;;;13.09;70.54
62833;BME280;48891;49.220;6.920;2023-01-05T01:16:43;99412.66;;;13.39;70.51
62833;BME280;48891;49.220;6.920;2023-01-05T01:19:17;99406.41;;;13.40;70.63
62833;BME280;48891;49.220;6.920;2023-01-05T01:21:42;99400.25;;;13.39;70.65
62833;BME280;48891;49.220;6.920;2023-01-05T01:24:08;99397.59;;;13.39;70.89
62833;BME280;48891;49.220;6.920;2023-01-05T01:26:38;99407.44;;;13.37;70.72
62833;BME280;48891;49.220;6.920;2023-01-05T01:29:04;99400.25;;;13.39;70.80
62833;BME280;48891;49.220;6.920;2023-01-05T01:31:29;99397.53;;;13.41;70.71
62833;BME280;48891;49.220;6.920;2023-01-05T01:33:54;99387.09;;;13.38;70.71
62833;BME280;48891;49.220;6.920;2023-01-05T01:36:19;99399.31;;;13.40;70.61
62833;BME280;48891;49.220;6.920;2023-01-05T01:38:45;99403.75;;;13.40;70.80
62833;BME280;48891;49.220;6.920;2023-01-05T01:41:11;99406.41;;;13.40;70.78
62833;BME280;48891;49.220;6.920;2023-01-05T01:43:47;99395.81;;;13.40;70.89
62833;BME280;48891;49.220;6.920;2023-01-05T01:46:15;99393.16;;;13.40;70.72
62833;BME280;48891;49.220;6.920;2023-01-05T01:48:46;99405.56;;;13.39;70.83
62833;BME280;48891;49.220;6.920;2023-01-05T01:51:27;99398.44;;;13.40;70.71
62833;BME280;48891;49.220;6.920;2023-01-05T01:53:57;99408.19;;;13.39;70.65
62833;BME280;48891;49.220;6.920;2023-01-05T01:56:25;99372.78;;;13.10;70.89
62833;BME280;48891;49.220;6.920;2023-01-05T01:58:51;99417.88;;;13.40;70.68
62833;BME280;48891;49.220;6.920;2023-01-05T02:01:16;99428.47;;;13.40;70.97
62833;BME280;48891;49.220;6.920;2023-01-05T02:03:42;99418.72;;;13.41;70.78
62833;BME280;48891;49.220;6.920;2023-01-05T02:06:08;99423.16;;;13.40;70.88
62833;BME280;48891;49.220;6.920;2023-01-05T02:08:34;99396.94;;;13.36;70.79
62833;BME280;48891;49.220;6.920;2023-01-05T02:27:52;99431.09;;;13.40;70.93
62833;BME280;48891;49.220;6.920;2023-01-05T02:36:00;99427.50;;;13.41;70.87
62833;BME280;48891;49.220;6.920;2023-01-05T02:38:41;99434.59;;;13.41;70.89
62833;BME280;48891;49.220;6.920;2023-01-05T02:41:36;99431.94;;;13.41;70.84
62833;BME280;48891;49.220;6.920;2023-01-05T02:44:06;99432.78;;;13.41;71.08
62833;BME280;48891;49.220;6.920;2023-01-05T02:46:32;99434.59;;;13.41;70.94
62833;BME280;48891;49.220;6.920;2023-01-05T02:48:59;99433.63;;;13.42;70.91
62833;BME280;48891;49.220;6.920;2023-01-05T02:51:31;99385.09;;;13.11;71.18
62833;BME280;48891;49.220;6.920;2023-01-05T02:54:26;99425.97;;;13.37;71.13
62833;BME280;48891;49.220;6.920;2023-01-05T02:57:00;99437.34;;;13.39;71.06
62833;BME280;48891;49.220;6.920;2023-01-05T02:59:57;99451.25;;;13.43;71.18
62833;BME280;48891;49.220;6.920;2023-01-05T03:02:26;99448.59;;;13.43;71.21
62833;BME280;48891;49.220;6.920;2023-01-05T03:05:00;99447.66;;;13.44;71.21
62833;BME280;48891;49.220;6.920;2023-01-05T03:07:32;99438.00;;;13.43;71.16
62833;BME280;48891;49.220;6.920;2023-01-05T03:09:59;99438.94;;;13.42;70.96
62833;BME280;48891;49.220;6.920;2023-01-05T03:12:32;99441.59;;;13.42;70.93
62833;BME280;48891;49.220;6.920;2023-01-05T03:15:02;99421.19;;;13.28;70.91
62833;BME280;48891;49.220;6.920;2023-01-05T03:17:46;99441.59;;;13.42;71.34
62833;BME280;48891;49.220;6.920;2023-01-05T03:20:15;99440.81;;;13.40;71.14
62833;BME280;48891;49.220;6.920;2023-01-05T03:22:42;99452.38;;;13.39;71.00
62833;BME280;48891;49.220;6.920;2023-01-05T03:25:11;99441.09;;;13.35;71.05
62833;BME280;48891;49.220;6.920;2023-01-05T03:27:37;99466.28;;;13.42;71.44
62833;BME280;48891;49.220;6.920;2023-01-05T03:30:03;99477.72;;;13.43;70.95
62833;BME280;48891;49.220;6.920;2023-01-05T03:32:29;99461.09;;;13.41;70.94
62833;BME280;48891;49.220;6.920;2023-01-05T03:35:01;99463.06;;;13.37;71.15
62833;BME280;48891;49.220;6.920;2023-01-05T03:37:39;99435.19;;;13.30;71.12
62833;BME280;48891;49.220;6.920;2023-01-05T03:40:12;99460.13;;;13.42;71.26
62833;BME280;48891;49.220;6.920;2023-01-05T03:42:39;99460.41;;;13.37;70.98
62833;BME280;48891;49.220;6.920;2023-01-05T03:45:07;99459.19;;;13.43;71.15
62833;BME280;48891;49.220;6.920;2023-01-05T03:47:34;99456.88;;;13.37;71.14
62833;BME280;48891;49.220;6.920;2023-01-05T03:49:59;99469.88;;;13.41;71.08
62833;BME280;48891;49.220;6.920;2023-01-05T03:52:24;99472.44;;;13.43;70.87
62833;BME280;48891;49.220;6.920;2023-01-05T03:54:49;99481.31;;;13.42;70.90
62833;BME280;48891;49.220;6.920;2023-01-05T03:57:15;99480.38;;;13.43;70.99
62833;BME280;48891;49.220;6.920;2023-01-05T03:59:40;99474.25;;;13.42;70.93
62833;BME280;48891;49.220;6.920;2023-01-05T04:02:05;99471.00;;;13.37;70.83
62833;BME280;48891;49.220;6.920;2023-01-05T04:04:30;99476.38;;;13.36;70.79
62833;BME280;48891;49.220;6.920;2023-01-05T04:06:55;99480.38;;;13.43;70.81
62833;BME280;48891;49.220;6.920;2023-01-05T04:09:21;99481.31;;;13.42;70.80
62833;BME280;48891;49.220;6.920;2023-01-05T04:11:46;99484.84;;;13.42;70.89
62833;BME280;48891;49.220;6.920;2023-01-05T04:14:11;99485.69;;;13.43;70.77
62833;BME280;48891;49.220;6.920;2023-01-05T04:16:36;99487.56;;;13.41;70.79
62833;BME280;48891;49.220;6.920;2023-01-05T04:19:02;99486.59;;;13.42;70.93
62833;BME280;48891;49.220;6.920;2023-01-05T04:21:27;99489.25;;;13.42;70.82
62833;BME280;48891;49.220;6.920;2023-01-05T04:23:52;99489.25;;;13.42;70.85
62833;BME280;48891;49.220;6.920;2023-01-05T04:26:17;99489.25;;;13.42;71.01
62833;BME280;48891;49.220;6.920;2023-01-05T04:28:42;99491.06;;;13.41;70.93
62833;BME280;48891;49.220;6.920;2023-01-05T04:31:08;99485.00;;;13.39;70.81
62833;BME280;48891;49.220;6.920;2023-01-05T04:33:33;99488.31;;;13.43;71.01
62833;BME280;48891;49.220;6.920;2023-01-05T04:35:58;99493.63;;;13.43;70.73
62833;BME280;48891;49.220;6.920;2023-01-05T04:38:23;99486.59;;;13.42;70.80
62833;BME280;48891;49.220;6.920;2023-01-05T04:40:49;99494.53;;;13.42;70.80
62833;BME280;48891;49.220;6.920;2023-01-05T04:43:15;99498.16;;;13.41;70.89
62833;BME280;48891;49.220;6.920;2023-01-05T04:45:41;99507.78;;;13.42;70.65
62833;BME280;48891;49.220;6.920;2023-01-05T04:48:06;99467.66;;;13.18;70.66
62833;BME280;48891;49.220;6.920;2023-01-05T04:50:31;99490.75;;;13.32;70.88
62833;BME280;48891;49.220;6.920;2023-01-05T04:52:57;99508.66;;;13.42;70.66
62833;BME280;48891;49.220;6.920;2023-01-05T04:55:22;99513.09;;;13.42;70.62
62833;BME280;48891;49.220;6.920;2023-01-05T04:57:47;99526.16;;;13.45;70.83
62833;BME280;48891;49.220;6.920;2023-01-05T05:00:13;99496.88;;;13.32;70.69
62833;BME280;48891;49.220;6.920;2023-01-05T05:02:38;99522.75;;;13.43;70.72
62833;BME280;48891;49.220;6.920;2023-01-05T05:05:04;99522.75;;;13.43;70.64
62833;BME280;48891;49.220;6.920;2023-01-05T05:07:29;99525.41;;;13.43;70.81
62833;BME280;48891;49.220;6.920;2023-01-05T05:09:54;99515.75;;;13.42;70.66
62833;BME280;48891;49.220;6.920;2023-01-05T05:12:19;99522.84;;;13.41;70.83
62833;BME280;48891;49.220;6.920;2023-01-05T05:14:48;99531.53;;;13.43;70.89
62833;BME280;48891;49.220;6.920;2023-01-05T05:17:14;99534.28;;;13.42;70.65
62833;BME280;48891;49.220;6.920;2023-01-05T05:19:40;99547.34;;;13.45;70.72
62833;BME280;48891;49.220;6.920;2023-01-05T05:22:05;99533.16;;;13.30;70.65
62833;BME280;48891;49.220;6.920;2023-01-05T05:24:30;99551.88;;;13.43;70.33
62833;BME280;48891;49.220;6.920;2023-01-05T05:26:55;99554.44;;;13.44;70.74
62833;BME280;48891;49.220;6.920;2023-01-05T05:29:21;99535.16;;;13.42;70.59
62833;BME280;48891;49.220;6.920;2023-01-05T05:31:46;99535.31;;;13.39;70.48
62833;BME280;48891;49.220;6.920;2023-01-05T05:34:11;99551.88;;;13.43;70.74
62833;BME280;48891;49.220;6.920;2023-01-05T05:36:36;99544.78;;;13.43;70.77
62833;BME280;48891;49.220;6.920;2023-01-05T05:39:02;99542.13;;;13.43;70.74
62833;BME280;48891;49.220;6.920;2023-01-05T05:41:27;99543.94;;;13.43;70.72
62833;BME280;48891;49.220;6.920;2023-01-05T05:43:52;99544.78;;;13.43;70.56
62833;BME280;48891;49.220;6.920;2023-01-05T05:46:17;99548.38;;;13.42;70.49
62833;BME280;48891;49.220;6.920;2023-01-05T05:48:43;99551.03;;;13.42;70.42
62833;BME280;48891;49.220;6.920;2023-01-05T05:51:08;99553.94;;;13.38;70.76
62833;BME280;48891;49.220;6.920;2023-01-05T05:53:33;99559.81;;;13.43;70.65
62833;BME280;48891;49.220;6.920;2023-01-05T05:55:58;99571.34;;;13.42;70.76
62833;BME280;48891;49.220;6.920;2023-01-05T05:58:24;99573.91;;;13.43;70.59
62833;BME280;48891;49.220;6.920;2023-01-05T06:00:49;99570.44;;;13.43;70.68
62833;BME280;48891;49.220;6.920;2023-01-05T06:03:14;99572.22;;;13.42;70.64
62833;BME280;48891;49.220;6.920;2023-01-05T06:05:39;99578.38;;;13.43;70.60
62833;BME280;48891;49.220;6.920;2023-01-05T06:08:05;99579.28;;;13.42;70.46
62833;BME280;48891;49.220;6.920;2023-01-05T06:10:30;99576.66;;;13.42;70.40
62833;BME280;48891;49.220;6.920;2023-01-05T06:12:56;99588.13;;;13.42;70.57
62833;BME280;48891;49.220;6.920;2023-01-05T06:15:22;99581.94;;;13.42;70.61
62833;BME280;48891;49.220;6.920;2023-01-05T06:17:47;99583.75;;;13.41;70.63
62833;BME280;48891;49.220;6.920;2023-01-05T06:20:14;99585.47;;;13.42;70.50
62833;BME280;48891;49.220;6.920;2023-01-05T06:22:39;99587.25;;;13.42;70.31
62833;BME280;48891;49.220;6.920;2023-01-05T06:25:05;99598.72;;;13.42;70.42
62833;BME280;48891;49.220;6.920;2023-01-05T06:27:30;99596.06;;;13.42;70.47
62833;BME280;48891;49.220;6.920;2023-01-05T06:29:55;99594.34;;;13.41;70.34
62833;BME280;48891;49.220;6.920;2023-01-05T06:32:20;99605.69;;;13.43;70.21
62833;BME280;48891;49.220;6.920;2023-01-05T06:34:46;99606.66;;;13.42;70.33
62833;BME280;48891;49.220;6.920;2023-01-05T06:37:11;99602.22;;;13.43;70.43
62833;BME280;48891;49.220;6.920;2023-01-05T06:39:36;99601.53;;;13.39;70.47
62833;BME280;48891;49.220;6.920;2023-01-05T06:42:02;99537.94;;;13.07;70.52
62833;BME280;48891;49.220;6.920;2023-01-05T06:44:27;99596.91;;;13.43;70.32
62833;BME280;48891;49.220;6.920;2023-01-05T06:46:52;99573.59;;;13.34;70.39
62833;BME280;48891;49.220;6.920;2023-01-05T06:49:18;99607.50;;;13.43;70.48
62833;BME280;48891;49.220;6.920;2023-01-05T06:51:43;99599.56;;;13.43;70.38
62833;BME280;48891;49.220;6.920;2023-01-05T06:54:08;99602.28;;;13.41;70.36
62833;BME280;48891;49.220;6.920;2023-01-05T06:56:33;99602.22;;;13.43;70.31
62833;BME280;48891;49.220;6.920;2023-01-05T06:58:58;99608.34;;;13.43;70.24
62833;BME280;48891;49.220;6.920;2023-01-05T07:01:24;99611.06;;;13.42;70.45
62833;BME280;48891;49.220;6.920;2023-01-05T07:03:49;99576.13;;;13.19;70.34
62833;BME280;48891;49.220;6.920;2023-01-05T07:06:14;99572.59;;;13.19;70.29
62833;BME280;48891;49.220;6.920;2023-01-05T07:08:40;99618.09;;;13.43;70.40
62833;BME280;48891;49.220;6.920;2023-01-05T07:11:05;99576.13;;;13.19;70.21
62833;BME280;48891;49.220;6.920;2023-01-05T07:13:30;99618.09;;;13.43;70.26
62833;BME280;48891;49.220;6.920;2023-01-05T07:15:56;99626.03;;;13.43;70.42
62833;BME280;48891;49.220;6.920;2023-01-05T07:18:21;99623.41;;;13.43;70.17
62833;BME280;48891;49.220;6.920;2023-01-05T07:20:46;99631.34;;;13.43;70.08
62833;BME280;48891;49.220;6.920;2023-01-05T07:23:11;99622.88;;;13.36;70.34
62833;BME280;48891;49.220;6.920;2023-01-05T07:25:37;99641.00;;;13.44;70.05
62833;BME280;48891;49.220;6.920;2023-01-05T07:28:02;99638.44;;;13.42;70.32
62833;BME280;48891;49.220;6.920;2023-01-05T07:30:27;99651.69;;;13.42;70.15
62833;BME280;48891;49.220;6.920;2023-01-05T07:32:56;99655.19;;;13.43;70.13
62833;BME280;48891;49.220;6.920;2023-01-05T07:35:22;99653.38;;;13.43;70.13
62833;BME280;48891;49.220;6.920;2023-01-05T07:37:47;99644.50;;;13.44;70.00
62833;BME280;48891;49.220;6.920;2023-01-05T07:40:12;99642.78;;;13.43;70.01
62833;BME280;48891;49.220;6.920;2023-01-05T07:42:37;99644.59;;;13.43;70.25
62833;BME280;48891;49.220;6.920;2023-01-05T07:45:03;99604.38;;;13.19;70.09
62833;BME280;48891;49.220;6.920;2023-01-05T07:47:28;99646.53;;;13.39;69.93
62833;BME280;48891;49.220;6.920;2023-01-05T07:49:53;99645.50;;;13.42;70.11
62833;BME280;48891;49.220;6.920;2023-01-05T07:52:19;99644.66;;;13.41;70.07
62833;BME280;48891;49.220;6.920;2023-01-05T07:54:44;99654.31;;;13.42;70.10
62833;BME280;48891;49.220;6.920;2023-01-05T07:57:09;99642.84;;;13.42;70.00
62833;BME280;48891;49.220;6.920;2023-01-05T07:59:34;99650.03;;;13.40;70.12
62833;BME280;48891;49.220;6.920;2023-01-05T08:02:00;99667.56;;;13.42;70.00
62833;BME280;48891;49.220;6.920;2023-01-05T08:04:25;99669.34;;;13.42;69.84
62833;BME280;48891;49.220;6.920;2023-01-05T08:06:50;99666.81;;;13.40;69.92
62833;BME280;48891;49.220;6.920;2023-01-05T08:09:15;99672.88;;;13.42;70.08
62833;BME280;48891;49.220;6.920;2023-01-05T08:11:41;99625.81;;;13.14;69.88
62833;BME280;48891;49.220;6.920;2023-01-05T08:14:06;99679.84;;;13.43;70.07
62833;BME280;48891;49.220;6.920;2023-01-05T08:16:32;99665.16;;;13.38;70.07
62833;BME280;48891;49.220;6.920;2023-01-05T08:18:58;99659.25;;;13.33;70.04
62833;BME280;48891;49.220;6.920;2023-01-05T08:21:23;99674.56;;;13.43;69.81
62833;BME280;48891;49.220;6.920;2023-01-05T08:23:49;99693.09;;;13.43;70.10
62833;BME280;48891;49.220;6.920;2023-01-05T08:26:16;99698.47;;;13.42;70.08
62833;BME280;48891;49.220;6.920;2023-01-05T08:28:42;99701.03;;;13.43;70.07
62833;BME280;48891;49.220;6.920;2023-01-05T08:31:15;99708.06;;;13.44;70.18
62833;BME280;48891;49.220;6.920;2023-01-05T08:33:41;99697.47;;;13.44;70.42
62833;BME280;48891;49.220;6.920;2023-01-05T08:36:15;99698.41;;;13.43;70.32
62833;BME280;48891;49.220;6.920;2023-01-05T08:38:41;99705.41;;;13.44;70.57
62833;BME280;48891;49.220;6.920;2023-01-05T08:41:06;99711.56;;;13.45;70.62
62833;BME280;48891;49.220;6.920;2023-01-05T08:43:31;99715.06;;;13.45;70.53
62833;BME280;48891;49.220;6.920;2023-01-05T08:45:56;99686.75;;;13.30;70.50
62833;BME280;48891;49.220;6.920;2023-01-05T08:48:22;99719.50;;;13.45;70.80
62833;BME280;48891;49.220;6.920;2023-01-05T08:50:47;99714.22;;;13.45;70.80
62833;BME280;48891;49.220;6.920;2023-01-05T08:53:12;99715.06;;;13.45;70.66
62833;BME280;48891;49.220;6.920;2023-01-05T08:55:37;99686.75;;;13.30;70.53
62833;BME280;48891;49.220;6.920;2023-01-05T08:58:03;99712.41;;;13.45;70.69
62833;BME280;48891;49.220;6.920;2023-01-05T09:00:28;99686.19;;;13.23;70.51
62833;BME280;48891;49.220;6.920;2023-01-05T09:02:53;99716.84;;;13.45;70.62
62833;BME280;48891;49.220;6.920;2023-01-05T09:05:18;99718.59;;;13.46;70.56
62833;BME280;48891;49.220;6.920;2023-01-05T09:07:44;99717.63;;;13.47;70.38
62833;BME280;48891;49.220;6.920;2023-01-05T09:10:09;99719.34;;;13.48;70.64
62833;BME280;48891;49.220;6.920;2023-01-05T09:12:35;99684.25;;;13.27;70.54
62833;BME280;48891;49.220;6.920;2023-01-05T09:15:01;99718.16;;;13.54;70.45
62833;BME280;48891;49.220;6.920;2023-01-05T09:17:26;99726.94;;;13.54;70.63
62833;BME280;48891;49.220;6.920;2023-01-05T09:19:51;99684.16;;;13.28;70.68
62833;BME280;48891;49.220;6.920;2023-01-05T09:22:16;99734.91;;;13.54;71.14
62833;BME280;48891;49.220;6.920;2023-01-05T09:24:42;99739.28;;;13.55;70.75
62833;BME280;48891;49.220;6.920;2023-01-05T09:27:07;99731.41;;;13.54;70.86
62833;BME280;48891;49.220;6.920;2023-01-05T09:29:32;99738.31;;;13.56;70.83
62833;BME280;48891;49.220;6.920;2023-01-05T09:31:58;99743.63;;;13.56;70.68
62833;BME280;48891;49.220;6.920;2023-01-05T09:34:23;99730.38;;;13.56;70.63
62833;BME280;48891;49.220;6.920;2023-01-05T09:36:48;99740.03;;;13.57;70.75
62833;BME280;48891;49.220;6.920;2023-01-05T09:39:13;99741.69;;;13.60;70.73
62833;BME280;48891;49.220;6.920;2023-01-05T09:41:48;99747.75;;;13.62;70.70
62833;BME280;48891;49.220;6.920;2023-01-05T09:44:27;99749.44;;;13.63;70.76
62833;BME280;48891;49.220;6.920;2023-01-05T09:46:55;99749.53;;;13.61;70.55
62833;BME280;48891;49.220;6.920;2023-01-05T09:49:22;99757.47;;;13.61;70.62
62833;BME280;48891;49.220;6.920;2023-01-05T09:51:51;99708.38;;;13.38;70.53
62833;BME280;48891;49.220;6.920;2023-01-05T09:54:19;99757.38;;;13.63;70.60
62833;BME280;48891;49.220;6.920;2023-01-05T09:56:48;99754.75;;;13.63;70.23
62833;BME280;48891;49.220;6.920;2023-01-05T09:59:23;99762.69;;;13.63;70.19
62833;BME280;48891;49.220;6.920;2023-01-05T10:01:50;99753.13;;;13.60;70.60
62833;BME280;48891;49.220;6.920;2023-01-05T10:04:24;99750.47;;;13.60;70.22
62833;BME280;48891;49.220;6.920;2023-01-05T10:06:54;99759.19;;;13.62;70.42
62833;BME280;48891;49.220;6.920;2023-01-05T10:09:27;99755.63;;;13.63;70.17
62833;BME280;48891;49.220;6.920;2023-01-05T10:14:42;99755.63;;;13.63;70.14
62833;BME280;48891;49.220;6.920;2023-01-05T10:17:16;99752.09;;;13.63;69.94
62833;BME280;48891;49.220;6.920;2023-01-05T10:19:43;99759.13;;;13.64;69.82
62833;BME280;48891;49.220;6.920;2023-01-05T10:22:35;99755.63;;;13.63;70.26
62833;BME280;48891;49.220;6.920;2023-01-05T10:25:11;99760.81;;;13.65;70.00
62833;BME280;48891;49.220;6.920;2023-01-05T10:31:16;99749.22;;;13.67;69.90
62833;BME280;48891;49.220;6.920;2023-01-05T10:33:31;99711.56;;;13.45;69.79
62833;BME280;48891;49.220;6.920;2023-01-05T10:38:46;99749.22;;;13.67;70.01
62833;BME280;48891;49.220;6.920;2023-01-05T10:44:04;99757.16;;;13.67;69.79
62833;BME280;48891;49.220;6.920;2023-01-05T10:46:32;99765.94;;;13.68;69.71
62833;BME280;48891;49.220;6.920;2023-01-05T10:48:58;99752.69;;;13.68;69.93
62833;BME280;48891;49.220;6.920;2023-01-05T10:51:25;99753.56;;;13.68;69.89
62833;BME280;48891;49.220;6.920;2023-01-05T10:53:51;99746.47;;;13.69;69.93
62833;BME280;48891;49.220;6.920;2023-01-05T10:56:25;99751.78;;;13.69;69.97
62833;BME280;48891;49.220;6.920;2023-01-05T10:59:06;99750.81;;;13.70;69.81
62833;BME280;48891;49.220;6.920;2023-01-05T11:01:32;99754.25;;;13.72;69.96
62833;BME280;48891;49.220;6.920;2023-01-05T11:04:31;99744.50;;;13.73;70.09
62833;BME280;48891;49.220;6.920;2023-01-05T11:07:04;99748.16;;;13.70;70.02
62833;BME280;48891;49.220;6.920;2023-01-05T11:09:30;99753.16;;;13.76;70.29
62833;BME280;48891;49.220;6.920;2023-01-05T11:11:58;99742.56;;;13.76;70.58
62833;BME280;48891;49.220;6.920;2023-01-05T11:14:26;99742.41;;;13.79;70.57
62833;BME280;48891;49.220;6.920;2023-01-05T11:16:54;99748.47;;;13.81;70.85
62833;BME280;48891;49.220;6.920;2023-01-05T11:19:30;99719.09;;;13.68;70.68
62833;BME280;48891;49.220;6.920;2023-01-05T11:21:56;99745.72;;;13.83;70.64
62833;BME280;48891;49.220;6.920;2023-01-05T11:24:34;99743.94;;;13.83;70.93
62833;BME280;48891;49.220;6.920;2023-01-05T11:27:00;99740.31;;;13.84;70.33
62833;BME280;48891;49.220;6.920;2023-01-05T11:29:27;99744.69;;;13.85;70.41
62833;BME280;48891;49.220;6.920;2023-01-05T11:32:01;99739.47;;;13.84;70.16
62833;BME280;48891;49.220;6.920;2023-01-05T11:34:37;99746.41;;;13.86;70.33
62833;BME280;48891;49.220;6.920;2023-01-05T11:42:13;99740.44;;;13.83;70.25
62833;BME280;48891;49.220;6.920;2023-01-05T11:44:54;99739.47;;;13.84;69.95
62833;BME280;48891;49.220;6.920;2023-01-05T11:47:25;61680.38;;;-145.84;100.00
62833;BME280;48891;49.220;6.920;2023-01-05T11:50:45;61680.38;;;-145.84;100.00
62833;BME280;48891;49.220;6.920;2023-01-05T11:52:50;61680.38;;;-145.84;100.00
62833;BME280;48891;49.220;6.920;2023-01-05T11:57:48;61680.38;;;-145.84;100.00
62833;BME280;48891;49.220;6.920;2023-01-05T12:00:33;61680.38;;;-145.84;100.00
62833;BME280;48891;49.220;6.920;2023-01-05T12:06:28;61680.38;;;-145.84;100.00
62833;BME280;48891;49.220;6.920;2023-01-05T12:09:33;61680.38;;;-145.84;100.00
62833;BME280;48891;49.220;6.920;2023-01-05T12:12:24;61680.38;;;-145.84;100.00
62833;BME280;48891;49.220;6.920;2023-01-05T12:17:38;61680.38;;;-145.84;100.00
62833;BME280;48891;49.220;6.920;2023-01-05T12:33:46;61680.38;;;-145.84;100.00
62833;BME280;48891;49.220;6.920;2023-01-05T12:36:34;61680.38;;;-145.84;100.00
62833;BME280;48891;49.220;6.920;2023-01-05T12:39:23;61680.38;;;-145.84;100.00
62833;BME280;48891;49.220;6.920;2023-01-05T12:47:46;61680.38;;;-145.84;100.00
62833;BME280;48891;49.220;6.920;2023-01-05T12:52:46;61680.38;;;-145.84;100.00
62833;BME280;48891;49.220;6.920;2023-01-05T12:55:25;61680.38;;;-145.84;100.00
62833;BME280;48891;49.220;6.920;2023-01-05T12:58:04;61680.38;;;-145.84;100.00
62833;BME280;48891;49.220;6.920;2023-01-05T13:00:35;61680.38;;;-145.84;100.00
62833;BME280;48891;49.220;6.920;2023-01-05T13:03:03;61680.38;;;-145.84;100.00
62833;BME280;48891;49.220;6.920;2023-01-05T13:08:19;61680.38;;;-145.84;100.00
62833;BME280;48891;49.220;6.920;2023-01-05T13:13:18;61680.38;;;-145.84;100.00
62833;BME280;48891;49.220;6.920;2023-01-05T13:15:52;61680.38;;;-145.84;100.00
62833;BME280;48891;49.220;6.920;2023-01-05T13:18:22;61680.38;;;-145.84;100.00
62833;BME280;48891;49.220;6.920;2023-01-05T13:20:55;61680.38;;;-145.84;100.00
62833;BME280;48891;49.220;6.920;2023-01-05T13:23:34;61680.38;;;-145.84;100.00
62833;BME280;48891;49.220;6.920;2023-01-05T13:26:09;61680.38;;;-145.84;100.00
62833;BME280;48891;49.220;6.920;2023-01-05T13:28:35;61680.38;;;-145.84;100.00
62833;BME280;48891;49.220;6.920;2023-01-05T13:39:26;61680.38;;;-145.84;100.00
62833;BME280;48891;49.220;6.920;2023-01-05T13:47:58;61680.38;;;-145.84;100.00
62833;BME280;48891;49.220;6.920;2023-01-05T13:53:22;61680.38;;;-145.84;100.00
62833;BME280;48891;49.220;6.920;2023-01-05T13:56:30;61680.38;;;-145.84;100.00
62833;BME280;48891;49.220;6.920;2023-01-05T13:58:49;61680.38;;;-145.84;100.00
62833;BME280;48891;49.220;6.920;2023-01-05T14:01:18;61680.38;;;-145.84;100.00
62833;BME280;48891;49.220;6.920;2023-01-05T14:03:52;61680.38;;;-145.84;100.00
62833;BME280;48891;49.220;6.920;2023-01-05T14:06:20;61680.38;;;-145.84;100.00
62833;BME280;48891;49.220;6.920;2023-01-05T14:08:57;61680.38;;;-145.84;100.00
62833;BME280;48891;49.220;6.920;2023-01-05T14:11:25;61680.38;;;-145.84;100.00
62833;BME280;48891;49.220;6.920;2023-01-05T14:24:40;61680.38;;;-145.84;100.00
62833;BME280;48891;49.220;6.920;2023-01-05T14:27:19;61680.38;;;-145.84;100.00
62833;BME280;48891;49.220;6.920;2023-01-05T14:32:13;61680.38;;;-145.84;100.00
62833;BME280;48891;49.220;6.920;2023-01-05T14:34:59;61680.38;;;-145.84;100.00
62833;BME280;48891;49.220;6.920;2023-01-05T14:40:45;61680.38;;;-145.84;100.00
62833;BME280;48891;49.220;6.920;2023-01-05T14:45:57;61680.38;;;-145.84;100.00
62833;BME280;48891;49.220;6.920;2023-01-05T14:48:33;61680.38;;;-145.84;100.00
62833;BME280;48891;49.220;6.920;2023-01-05T14:51:18;61680.38;;;-145.84;100.00
62833;BME280;48891;49.220;6.920;2023-01-05T14:53:46;61680.38;;;-145.84;100.00